Santa Pola, Spain
Current Conditions -  °F | °C
As of 9:30 AM on Sunday 23 Nov 2014 (Local Time) from LEAL Reporting Station
Scattered Clouds Scattered Clouds  
Wind Chill: 68°   Ceiling: Unl
Heat Index: 68°   Visibility: 6mi
Dew Point: 57°   Wind: 10mph
Humidity: 68%   Direction: 50°NE
Pressure: 29.97"   Gusts: NA
Location:  38.19°N, 0.56°W
Report Text: LEAL 230830Z 05009KT 9999 FEW025 SCT045 20/14 Q1015 NOSIG
Loading
Personal Weather Stations






























Interactive Weather Map New forecast layout! Learn more

10-Day Weather Forecast

Advertisements
Track Severe Weather on mobile